Time;durP1;ratioP1;P1;durP2;ratioP2;P2;SDS_P1;SDS_P2;PMS_P1;PMS_P2;Temp;Humidity;BMP_temperature;BMP_pressure;BME280_temperature;BME280_humidity;BME280_pressure;Samples;Min_cycle;Max_cycle;Signal;HPM_P1;HPM_P2
2022/06/19 07:42:37;;;;;;;18.38;4.72;;;38.50;60.50;;;;;;5120560;27;20282;-77
2022/06/19 07:45:06;;;;;;;13.00;4.22;;;38.30;58.70;;;;;;5107399;28;20194;-76
2022/06/19 07:50:22;;;;;;;19.35;4.97;;;37.80;61.10;;;;;;5104192;28;20213;-77
2022/06/19 07:52:53;;;;;;;16.23;4.45;;;38.30;57.80;;;;;;5111434;28;20205;-78
2022/06/19 07:55:24;;;;;;;16.90;4.50;;;38.40;58.00;;;;;;5111588;28;20687;-79
2022/06/19 07:57:54;;;;;;;18.00;4.65;;;38.20;61.70;;;;;;5112019;28;20615;-80
2022/06/19 08:00:26;;;;;;;14.88;4.35;;;38.10;59.60;;;;;;5110454;28;20224;-79
2022/06/19 08:02:55;;;;;;;16.70;4.28;;;37.40;61.60;;;;;;5107268;28;20255;-78
2022/06/19 08:05:26;;;;;;;16.70;4.55;;;36.70;65.90;;;;;;5108513;28;20210;-77
2022/06/19 08:07:57;;;;;;;18.60;4.88;;;36.80;65.30;;;;;;5111777;28;20212;-79
2022/06/19 08:10:27;;;;;;;15.73;4.20;;;36.80;64.50;;;;;;5116140;28;20206;-78
2022/06/19 08:12:57;;;;;;;17.67;4.75;;;37.00;63.00;;;;;;5103206;28;20252;-78
2022/06/19 08:15:29;;;;;;;18.65;4.35;;;37.10;63.90;;;;;;5105689;28;20732;-78
2022/06/19 08:17:58;;;;;;;18.27;5.35;;;37.50;63.20;;;;;;5106584;28;20263;-78
2022/06/19 08:20:27;;;;;;;24.17;5.38;;;37.50;62.20;;;;;;5105967;28;20206;-79
2022/06/19 08:22:55;;;;;;;14.95;4.80;;;37.40;66.50;;;;;;5108525;28;20671;-80
2022/06/19 08:25:24;;;;;;;14.43;4.78;;;37.70;65.00;;;;;;5106402;28;20233;-78
2022/06/19 08:27:53;;;;;;;18.38;4.63;;;38.20;61.50;;;;;;5101053;28;20756;-77
2022/06/19 08:30:25;;;;;;;14.23;4.47;;;38.20;64.10;;;;;;5106776;28;20213;-78
2022/06/19 08:32:59;;;;;;;15.40;4.30;;;38.70;60.40;;;;;;5103715;28;20198;-79
2022/06/19 08:35:29;;;;;;;15.85;4.55;;;38.80;63.50;;;;;;5100318;28;20237;-80
2022/06/19 08:38:07;;;;;;;14.77;5.18;;;38.80;61.30;;;;;;5103173;28;20421;-80
2022/06/19 08:40:49;;;;;;;17.75;4.25;;;38.40;64.10;;;;;;5099094;28;20301;-78
2022/06/19 08:43:35;;;;;;;13.80;4.57;;;39.00;63.20;;;;;;5103549;28;20260;-79
2022/06/19 08:46:14;;;;;;;14.77;4.40;;;39.10;60.50;;;;;;5108221;28;20252;-78
2022/06/19 08:49:17;;;;;;;17.45;5.22;;;38.80;61.90;;;;;;5107646;28;20210;-79
2022/06/19 08:51:59;;;;;;;16.52;4.55;;;39.10;59.20;;;;;;5065003;28;20245;-80
2022/06/19 08:54:39;;;;;;;19.67;4.88;;;39.10;60.60;;;;;;5089014;28;20718;-78
2022/06/19 08:57:17;;;;;;;22.80;4.97;;;39.40;59.30;;;;;;5094622;28;20314;-80
2022/06/19 08:59:57;;;;;;;22.17;5.15;;;39.70;58.70;;;;;;5100959;28;20342;-80
2022/06/19 09:02:40;;;;;;;17.70;4.78;;;39.20;59.70;;;;;;5100873;28;20291;-77
2022/06/19 09:08:26;;;;;;;19.25;5.13;;;39.90;57.40;;;;;;5096309;28;20288;-78
2022/06/19 09:11:04;;;;;;;20.10;5.40;;;39.70;60.10;;;;;;5082631;28;20583;-79
2022/06/19 09:13:54;;;;;;;17.67;4.78;;;39.90;59.60;;;;;;5092520;28;20672;-81
2022/06/19 09:16:30;;;;;;;18.15;4.95;;;39.70;59.70;;;;;;5095190;28;20367;-81
2022/06/19 09:19:06;;;;;;;16.05;4.80;;;39.70;59.20;;;;;;5091893;28;20202;-80
2022/06/19 09:21:46;;;;;;;24.48;4.85;;;39.30;62.30;;;;;;5096300;28;20247;-77
2022/06/19 09:24:33;;;;;;;14.15;4.57;;;40.60;58.10;;;;;;5101644;28;20230;-77
2022/06/19 09:27:02;;;;;;;18.98;4.63;;;40.30;58.00;;;;;;5102377;28;20198;-80
2022/06/19 09:29:37;;;;;;;22.52;5.18;;;40.40;54.90;;;;;;5098084;28;20215;-77
2022/06/19 09:32:15;;;;;;;17.70;5.03;;;40.20;54.80;;;;;;5101153;28;20197;-78
2022/06/19 09:34:51;;;;;;;20.52;5.03;;;40.30;55.20;;;;;;5091723;28;20199;-77
2022/06/19 09:37:26;;;;;;;17.70;4.97;;;40.30;58.70;;;;;;5093802;28;20259;-79
2022/06/19 09:39:59;;;;;;;15.57;5.05;;;40.20;56.70;;;;;;5091800;28;20198;-77
2022/06/19 09:42:36;;;;;;;18.77;4.78;;;40.00;56.80;;;;;;5099159;28;20234;-78
2022/06/19 09:45:12;;;;;;;21.05;4.95;;;40.20;56.70;;;;;;5094316;28;20214;-79
2022/06/19 09:47:45;;;;;;;23.17;5.50;;;40.20;58.60;;;;;;5091573;28;20726;-78
2022/06/19 09:50:40;;;;;;;17.48;5.10;;;39.90;56.50;;;;;;5094047;28;20698;-79
2022/06/19 09:53:15;;;;;;;19.02;5.47;;;40.30;56.20;;;;;;5102619;28;20232;-81
2022/06/19 09:56:10;;;;;;;18.55;5.18;;;40.00;56.60;;;;;;5103722;28;20642;-78
2022/06/19 09:58:43;;;;;;;21.02;5.45;;;40.50;54.10;;;;;;5092353;28;20206;-78
2022/06/19 10:01:11;;;;;;;19.63;4.88;;;40.30;56.60;;;;;;5093497;28;20225;-77
2022/06/19 10:03:43;;;;;;;15.73;4.97;;;39.80;57.30;;;;;;5095664;28;20290;-78
2022/06/19 10:06:17;;;;;;;19.70;5.07;;;40.00;56.60;;;;;;5098280;28;20227;-78
2022/06/19 10:08:51;;;;;;;22.05;5.28;;;40.60;54.10;;;;;;5096196;28;20241;-77
2022/06/19 10:11:24;;;;;;;17.50;5.28;;;40.50;54.90;;;;;;5098676;28;20267;-78
2022/06/19 10:13:57;;;;;;;19.35;5.50;;;40.20;53.50;;;;;;5092279;28;20206;-78
2022/06/19 10:16:33;;;;;;;18.42;4.65;;;40.40;53.00;;;;;;5094618;28;20700;-79
2022/06/19 10:19:10;;;;;;;24.23;5.70;;;40.30;56.70;;;;;;5093683;28;20238;-79
2022/06/19 10:24:39;;;;;;;17.10;4.93;;;40.60;56.30;;;;;;5094516;28;20246;-79
2022/06/19 10:27:15;;;;;;;20.33;5.18;;;40.40;55.20;;;;;;5097981;28;20277;-79
2022/06/19 10:29:55;;;;;;;16.42;4.82;;;39.70;58.10;;;;;;5094350;28;20303;-79
2022/06/19 10:32:47;;;;;;;22.27;5.00;;;39.50;57.40;;;;;;5095848;28;20234;-78
2022/06/19 10:35:23;;;;;;;18.55;4.95;;;39.80;55.60;;;;;;5092936;28;20206;-79
2022/06/19 10:38:07;;;;;;;21.00;5.45;;;39.90;56.00;;;;;;5092930;28;20263;-78
2022/06/19 10:40:44;;;;;;;18.45;5.43;;;40.50;50.30;;;;;;5092107;28;20213;-78
2022/06/19 10:43:30;;;;;;;18.13;5.47;;;40.60;53.30;;;;;;5098127;28;20270;-78
2022/06/19 10:46:04;;;;;;;18.08;5.35;;;40.80;52.80;;;;;;5097244;28;20202;-80
2022/06/19 10:48:41;;;;;;;16.95;4.90;;;40.20;54.70;;;;;;5097887;28;20202;-78
2022/06/19 10:51:41;;;;;;;17.45;5.25;;;40.10;55.10;;;;;;5101616;28;20659;-79
2022/06/19 10:54:38;;;;;;;16.67;5.03;;;39.70;56.70;;;;;;5090393;28;20259;-77
2022/06/19 10:57:20;;;;;;;14.93;5.20;;;39.70;58.90;;;;;;5093489;28;20610;-78
2022/06/19 10:59:49;;;;;;;21.80;5.60;;;39.90;54.60;;;;;;5091028;28;20206;-78
2022/06/19 11:05:21;;;;;;;22.50;6.00;;;39.70;54.00;;;;;;5093006;28;20203;-78
2022/06/19 11:07:50;;;;;;;22.77;5.57;;;39.70;57.20;;;;;;5094757;28;20201;-81
2022/06/19 11:10:37;;;;;;;20.58;5.72;;;39.70;55.00;;;;;;5092711;28;20215;-77
2022/06/19 11:13:08;;;;;;;13.90;5.53;;;39.70;53.20;;;;;;5092092;28;20258;-78
2022/06/19 11:15:40;;;;;;;16.70;5.50;;;39.50;57.20;;;;;;5091004;28;20257;-80
2022/06/19 11:18:14;;;;;;;13.65;5.15;;;39.50;56.60;;;;;;5095509;28;20209;-77
2022/06/19 11:20:56;;;;;;;19.33;5.88;;;39.50;53.10;;;;;;5086007;28;20203;-77
2022/06/19 11:23:29;;;;;;;15.73;5.28;;;39.70;54.00;;;;;;5095777;28;20624;-78
2022/06/19 11:26:02;;;;;;;18.23;5.80;;;39.00;56.20;;;;;;5092309;28;20207;-76
2022/06/19 11:28:50;;;;;;;17.67;5.85;;;39.10;56.30;;;;;;5091805;28;20233;-76
2022/06/19 11:31:22;;;;;;;17.98;5.55;;;39.20;56.70;;;;;;5091404;28;20206;-77
2022/06/19 11:34:06;;;;;;;18.17;5.68;;;39.30;51.80;;;;;;5102326;28;20198;-78
2022/06/19 11:36:37;;;;;;;20.02;6.00;;;39.00;56.90;;;;;;5097096;28;20289;-80
2022/06/19 11:39:36;;;;;;;16.55;5.75;;;38.90;56.60;;;;;;5102337;28;20209;-79
2022/06/19 11:42:32;;;;;;;16.70;5.60;;;38.10;61.10;;;;;;5095015;28;20238;-79
2022/06/19 11:45:21;;;;;;;18.90;5.82;;;38.00;59.10;;;;;;5092616;28;20246;-81
2022/06/19 11:48:01;;;;;;;20.27;5.57;;;37.70;60.70;;;;;;5098169;28;20237;-79
2022/06/19 11:50:43;;;;;;;13.90;5.32;;;37.50;55.80;;;;;;5095636;28;20257;-78
2022/06/19 11:53:20;;;;;;;15.10;5.72;;;37.60;57.20;;;;;;5093835;28;20659;-79
2022/06/19 11:55:50;;;;;;;19.80;5.55;;;37.60;57.80;;;;;;5090385;28;20658;-79
2022/06/19 11:58:26;;;;;;;15.57;5.20;;;37.40;56.00;;;;;;5093193;28;20235;-77
2022/06/19 12:01:02;;;;;;;14.35;5.03;;;37.10;58.90;;;;;;5091447;28;20275;-77
2022/06/19 12:03:38;;;;;;;11.07;5.30;;;37.10;59.90;;;;;;5090885;28;20263;-78
2022/06/19 12:06:10;;;;;;;18.13;6.15;;;36.80;58.30;;;;;;5091278;28;20198;-76
2022/06/19 12:08:42;;;;;;;13.75;5.88;;;36.60;62.30;;;;;;5098161;28;20205;-77
2022/06/19 12:11:11;;;;;;;16.80;5.45;;;36.50;59.90;;;;;;5100481;28;20199;-75
2022/06/19 12:13:42;;;;;;;21.42;6.15;;;36.50;60.50;;;;;;5098514;28;20210;-77
2022/06/19 12:16:18;;;;;;;17.63;5.32;;;36.60;60.40;;;;;;5098423;28;20206;-77
2022/06/19 12:18:48;;;;;;;16.10;6.20;;;36.40;59.80;;;;;;5097203;28;20571;-78
2022/06/19 12:21:23;;;;;;;18.65;6.05;;;36.00;63.00;;;;;;5099940;28;20215;-75
2022/06/19 12:24:01;;;;;;;16.20;5.93;;;35.80;64.40;;;;;;5099970;28;20608;-75
2022/06/19 12:26:38;;;;;;;16.45;6.03;;;35.90;60.40;;;;;;5091037;28;20210;-76
2022/06/19 12:29:19;;;;;;;16.83;6.15;;;35.60;67.10;;;;;;5104739;28;20284;-75
2022/06/19 12:31:49;;;;;;;17.35;6.13;;;35.40;65.70;;;;;;5100162;28;20245;-76
2022/06/19 12:34:27;;;;;;;17.38;6.28;;;35.50;62.70;;;;;;5098225;28;20281;-78
2022/06/19 12:36:58;;;;;;;16.05;6.00;;;35.60;63.30;;;;;;5096221;28;20588;-78
2022/06/19 12:39:30;;;;;;;17.30;6.47;;;35.30;60.00;;;;;;5099995;28;20290;-79
2022/06/19 12:42:06;;;;;;;18.77;5.78;;;35.30;67.90;;;;;;5094671;28;20222;-75
2022/06/19 12:44:58;;;;;;;19.05;5.90;;;35.50;64.20;;;;;;5091629;28;20766;-75
2022/06/19 12:47:35;;;;;;;19.58;5.97;;;35.30;64.60;;;;;;5092577;28;20225;-77
2022/06/19 12:50:21;;;;;;;17.67;6.22;;;35.10;62.20;;;;;;5092865;28;20207;-78
2022/06/19 12:53:03;;;;;;;16.55;5.90;;;35.40;67.50;;;;;;5094686;28;20227;-74
2022/06/19 12:55:57;;;;;;;18.35;6.03;;;35.60;65.70;;;;;;5088364;28;20726;-75
2022/06/19 12:58:53;;;;;;;18.65;6.35;;;35.60;66.20;;;;;;5087587;28;20215;-76
2022/06/19 13:01:33;;;;;;;22.65;6.30;;;35.40;67.60;;;;;;5091977;28;20244;-77
2022/06/19 13:04:17;;;;;;;16.60;5.60;;;35.60;64.40;;;;;;5094144;28;20314;-74
2022/06/19 13:06:57;;;;;;;16.38;5.95;;;35.80;61.70;;;;;;5099136;28;20567;-77
2022/06/19 13:09:48;;;;;;;13.10;6.07;;;35.80;60.70;;;;;;5101628;28;20259;-76
2022/06/19 13:12:28;;;;;;;22.15;6.43;;;36.00;59.70;;;;;;5093006;28;20736;-74
2022/06/19 13:15:19;;;;;;;18.85;6.10;;;36.10;58.70;;;;;;5099784;27;20194;-76
2022/06/19 13:17:57;;;;;;;15.25;6.00;;;35.90;63.60;;;;;;5098526;28;20203;-77
2022/06/19 13:20:37;;;;;;;15.18;6.00;;;35.70;59.60;;;;;;5096634;28;20203;-75
2022/06/19 13:23:17;;;;;;;15.43;5.70;;;35.60;62.40;;;;;;5096725;28;20202;-76
2022/06/19 13:25:54;;;;;;;12.65;6.05;;;35.30;63.90;;;;;;5094179;28;20678;-76
2022/06/19 13:28:45;;;;;;;19.38;6.45;;;35.60;66.50;;;;;;5098309;28;20203;-78
2022/06/19 13:31:21;;;;;;;16.23;6.30;;;35.70;64.30;;;;;;5097849;28;20217;-75
2022/06/19 13:34:15;;;;;;;13.90;5.90;;;35.60;68.20;;;;;;5096881;28;20201;-75
2022/06/19 13:36:54;;;;;;;21.35;6.43;;;35.80;65.50;;;;;;5096894;28;20206;-76
2022/06/19 13:39:33;;;;;;;17.70;6.22;;;35.60;67.00;;;;;;5091702;28;20710;-76
2022/06/19 13:42:18;;;;;;;14.18;6.05;;;35.50;66.80;;;;;;5093326;28;20301;-75
2022/06/19 13:45:01;;;;;;;13.77;6.28;;;35.60;67.00;;;;;;5088609;28;20214;-74
2022/06/19 13:47:36;;;;;;;16.25;6.18;;;35.60;69.50;;;;;;5093470;28;20203;-76
2022/06/19 13:50:19;;;;;;;16.17;6.35;;;35.60;59.70;;;;;;5099544;28;20613;-75
2022/06/19 13:52:58;;;;;;;14.18;5.93;;;35.60;64.30;;;;;;5104169;28;20257;-77
2022/06/19 13:55:43;;;;;;;14.48;6.00;;;35.70;64.40;;;;;;5093805;28;20209;-77
2022/06/19 13:58:34;;;;;;;16.15;6.40;;;35.70;65.90;;;;;;5103416;28;20207;-76
2022/06/19 14:01:11;;;;;;;16.23;5.97;;;35.60;64.00;;;;;;5111099;28;20240;-76
2022/06/19 14:07:32;;;;;;;17.10;6.35;;;34.70;64.20;;;;;;5097890;28;20306;-74
2022/06/19 14:10:12;;;;;;;20.00;6.63;;;34.90;66.90;;;;;;5089482;28;20226;-73
2022/06/19 14:12:46;;;;;;;16.38;6.32;;;34.70;66.10;;;;;;5101361;28;20717;-77
2022/06/19 14:15:27;;;;;;;13.43;6.05;;;34.90;65.60;;;;;;5094053;28;20191;-76
2022/06/19 14:18:04;;;;;;;13.05;6.03;;;35.10;66.30;;;;;;5091606;28;20214;-79
2022/06/19 14:20:44;;;;;;;17.23;6.25;;;35.30;64.00;;;;;;5092936;28;20214;-77
2022/06/19 14:23:20;;;;;;;14.68;6.50;;;35.30;65.90;;;;;;5092173;28;20664;-78
2022/06/19 14:25:56;;;;;;;18.02;6.35;;;35.30;66.00;;;;;;5095791;28;20227;-77
2022/06/19 14:28:28;;;;;;;17.27;6.60;;;35.40;65.70;;;;;;5106206;28;20208;-76
2022/06/19 14:31:00;;;;;;;15.30;6.00;;;35.30;62.70;;;;;;5093568;28;20241;-75
2022/06/19 14:33:42;;;;;;;16.55;6.43;;;35.40;66.40;;;;;;5093410;28;20234;-77
2022/06/19 14:36:23;;;;;;;16.77;6.10;;;35.30;62.80;;;;;;5092724;28;20206;-75
2022/06/19 14:38:56;;;;;;;15.77;6.13;;;35.10;62.80;;;;;;5095034;28;20202;-75
2022/06/19 14:41:33;;;;;;;17.77;6.57;;;35.10;62.90;;;;;;5096613;28;20218;-76
2022/06/19 14:44:13;;;;;;;15.45;6.57;;;35.10;64.90;;;;;;5101587;28;20217;-75
2022/06/19 14:47:17;;;;;;;17.70;5.97;;;34.90;63.00;;;;;;5099066;28;20211;-77
2022/06/19 14:50:12;;;;;;;18.10;6.05;;;34.60;64.50;;;;;;5101040;27;20230;-76
2022/06/19 14:53:11;;;;;;;12.63;6.25;;;34.30;64.00;;;;;;5107444;28;20275;-78
2022/06/19 14:55:51;;;;;;;18.23;6.38;;;34.40;64.80;;;;;;5092342;28;20195;-75
2022/06/19 14:58:22;;;;;;;16.20;6.70;;;34.50;64.40;;;;;;5095032;28;20234;-77
2022/06/19 15:00:59;;;;;;;17.42;6.20;;;34.40;64.70;;;;;;5094081;28;20549;-73
2022/06/19 15:03:40;;;;;;;19.08;6.72;;;34.50;63.80;;;;;;5093540;28;20256;-75
2022/06/19 15:06:19;;;;;;;14.35;6.85;;;34.50;62.70;;;;;;5091368;28;20218;-77
2022/06/19 15:09:00;;;;;;;16.75;5.78;;;34.40;63.30;;;;;;5090764;28;20230;-78
2022/06/19 15:11:33;;;;;;;22.70;6.18;;;34.50;62.80;;;;;;5093000;28;20203;-75
2022/06/19 15:14:25;;;;;;;19.02;6.47;;;34.40;66.10;;;;;;5092063;28;20256;-78
2022/06/19 15:16:57;;;;;;;18.38;7.45;;;34.20;69.30;;;;;;5102397;28;20251;-76
2022/06/19 15:19:38;;;;;;;15.95;5.80;;;34.30;69.10;;;;;;5098551;28;20203;-78
2022/06/19 15:22:09;;;;;;;15.73;6.30;;;34.40;67.70;;;;;;5099586;28;20583;-75
2022/06/19 15:25:21;;;;;;;14.55;6.20;;;34.40;64.80;;;;;;5097295;28;20303;-77
2022/06/19 15:27:51;;;;;;;15.50;6.03;;;34.30;62.70;;;;;;5089159;28;20210;-76
2022/06/19 15:30:40;;;;;;;15.05;6.50;;;34.30;63.40;;;;;;5094499;28;20215;-76
2022/06/19 15:33:31;;;;;;;18.35;6.35;;;34.30;64.90;;;;;;5099389;28;20214;-77
2022/06/19 15:36:03;;;;;;;16.67;6.70;;;34.10;62.60;;;;;;5102282;28;20272;-78
2022/06/19 15:39:31;;;;;;;19.05;6.43;;;34.10;64.30;;;;;;5089725;28;20213;-79
2022/06/19 15:42:23;;;;;;;24.90;6.75;;;33.90;63.60;;;;;;5093571;28;20677;-76
2022/06/19 15:45:16;;;;;;;15.93;6.43;;;33.90;63.10;;;;;;5088852;28;20211;-76
2022/06/19 15:48:32;;;;;;;19.98;6.63;;;33.90;65.90;;;;;;5089182;28;20210;-77
2022/06/19 15:51:32;;;;;;;15.73;6.50;;;33.80;63.40;;;;;;5084780;28;20206;-73
2022/06/19 15:54:07;;;;;;;17.88;6.22;;;33.90;64.70;;;;;;5086545;28;20198;-75
2022/06/19 15:56:40;;;;;;;14.75;6.60;;;33.80;65.10;;;;;;5089930;28;20729;-76
2022/06/19 15:59:15;;;;;;;17.63;6.55;;;33.70;64.80;;;;;;5091338;28;20346;-75
2022/06/19 16:01:55;;;;;;;14.80;5.97;;;33.50;63.80;;;;;;5085165;28;20199;-77
2022/06/19 16:04:27;;;;;;;15.25;6.07;;;33.50;64.90;;;;;;5088440;28;20237;-78
2022/06/19 16:06:58;;;;;;;16.42;6.85;;;33.50;65.30;;;;;;5082488;28;20649;-78
2022/06/19 16:09:31;;;;;;;16.85;6.32;;;33.50;65.30;;;;;;5089724;28;20210;-76
2022/06/19 16:12:02;;;;;;;18.48;6.43;;;33.50;65.80;;;;;;5100686;28;20237;-76
2022/06/19 16:14:34;;;;;;;14.93;6.35;;;33.50;64.80;;;;;;5096437;28;20277;-78
2022/06/19 16:17:22;;;;;;;19.15;6.60;;;33.40;65.90;;;;;;5101230;28;20694;-76
2022/06/19 16:20:11;;;;;;;17.60;6.85;;;33.30;68.60;;;;;;5095656;28;20213;-76
2022/06/19 16:22:40;;;;;;;15.43;6.75;;;33.10;69.70;;;;;;5093767;28;20343;-76
2022/06/19 16:25:09;;;;;;;16.55;6.97;;;33.10;71.90;;;;;;5104760;28;20731;-77
2022/06/19 16:27:39;;;;;;;11.48;6.53;;;33.10;71.50;;;;;;5102117;28;20245;-76
2022/06/19 16:30:10;;;;;;;13.10;5.68;;;33.00;72.20;;;;;;5101316;28;20276;-77
2022/06/19 16:32:44;;;;;;;19.73;6.82;;;32.90;72.80;;;;;;5101582;28;20652;-77
2022/06/19 16:44:09;;;;;;;22.70;6.28;;;32.70;73.80;;;;;;5095042;28;20567;-78
2022/06/19 16:46:40;;;;;;;16.13;6.13;;;32.70;72.40;;;;;;5092873;28;20218;-77
2022/06/19 16:49:26;;;;;;;15.20;6.20;;;32.60;72.20;;;;;;5095102;28;20222;-77
2022/06/19 16:51:57;;;;;;;20.30;6.47;;;32.40;73.20;;;;;;5093866;28;20861;-77
2022/06/19 16:54:38;;;;;;;15.63;6.70;;;32.30;75.00;;;;;;5092955;28;20207;-75
2022/06/19 16:57:19;;;;;;;16.92;6.97;;;32.20;76.80;;;;;;5088995;28;20207;-79
2022/06/19 16:59:49;;;;;;;19.75;7.32;;;32.30;78.60;;;;;;5089816;28;20205;-78
2022/06/19 17:02:22;;;;;;;17.98;6.32;;;32.20;80.00;;;;;;5086365;28;20207;-76
2022/06/19 17:04:58;;;;;;;18.67;6.40;;;32.10;78.20;;;;;;5093303;28;20202;-77
2022/06/19 17:07:28;;;;;;;15.47;6.60;;;32.00;79.40;;;;;;5093827;28;20206;-73
2022/06/19 17:10:01;;;;;;;15.97;6.37;;;31.90;79.40;;;;;;5099465;28;20676;-72
2022/06/19 17:12:33;;;;;;;16.77;7.27;;;31.90;79.70;;;;;;5095109;28;20215;-76
2022/06/19 17:15:07;;;;;;;17.57;6.00;;;31.80;81.20;;;;;;5095434;28;20203;-73
2022/06/19 17:17:41;;;;;;;17.93;6.87;;;31.60;83.10;;;;;;5099122;28;20639;-74
2022/06/19 17:20:22;;;;;;;16.00;6.73;;;31.60;83.60;;;;;;5095356;28;20742;-77
2022/06/19 17:23:05;;;;;;;19.37;6.93;;;31.50;84.30;;;;;;5057927;28;20232;-76
2022/06/19 17:25:36;;;;;;;19.73;7.17;;;31.40;83.20;;;;;;5064023;28;20672;-77
2022/06/19 17:28:08;;;;;;;19.73;6.73;;;31.40;82.90;;;;;;5072988;28;20210;-77
2022/06/19 17:30:39;;;;;;;16.63;7.03;;;31.30;83.60;;;;;;5074892;28;20282;-76
2022/06/19 17:33:26;;;;;;;15.67;6.50;;;31.20;84.70;;;;;;5068940;28;20615;-76
2022/06/19 17:35:57;;;;;;;17.90;6.90;;;31.20;85.50;;;;;;5072224;28;20200;-77
2022/06/19 17:38:33;;;;;;;22.50;6.83;;;31.00;84.90;;;;;;5060415;28;20238;-74
2022/06/19 17:41:04;;;;;;;19.33;6.43;;;30.90;86.20;;;;;;5064524;28;20222;-73
2022/06/19 17:43:40;;;;;;;15.17;6.70;;;30.90;87.60;;;;;;5062906;28;20207;-77
2022/06/19 17:46:13;;;;;;;17.63;7.07;;;30.80;87.30;;;;;;5057856;28;20212;-76
2022/06/19 17:48:48;;;;;;;24.30;7.53;;;30.70;88.40;;;;;;5054999;28;20291;-77
2022/06/19 17:51:28;;;;;;;18.97;6.77;;;30.60;88.60;;;;;;5055665;28;20222;-75
2022/06/19 17:53:58;;;;;;;18.03;7.30;;;30.50;90.30;;;;;;5057576;28;20283;-75
2022/06/19 17:56:49;;;;;;;19.53;6.60;;;30.50;90.70;;;;;;5059545;28;20235;-76
2022/06/19 17:59:44;;;;;;;15.60;7.20;;;30.40;90.50;;;;;;5058433;28;20209;-75
2022/06/19 18:02:23;;;;;;;13.60;6.20;;;30.40;90.70;;;;;;5065208;28;20200;-79
2022/06/19 18:04:57;;;;;;;14.57;6.87;;;30.20;91.30;;;;;;5061071;28;20207;-77
2022/06/19 18:07:31;;;;;;;16.50;7.07;;;30.10;91.80;;;;;;5062764;28;20549;-75
2022/06/19 18:10:05;;;;;;;17.57;6.90;;;30.10;92.40;;;;;;5057789;28;20201;-76
2022/06/19 18:12:42;;;;;;;15.83;7.13;;;30.00;92.50;;;;;;5061261;28;20636;-77
2022/06/19 18:18:42;;;;;;;19.30;7.57;;;29.90;93.10;;;;;;5058670;28;20216;-77
2022/06/19 18:21:01;;;;;;;21.27;7.20;;;29.70;94.10;;;;;;5059215;28;20220;-76
2022/06/19 18:23:31;;;;;;;17.73;7.30;;;29.50;94.70;;;;;;5055491;28;20375;-75
2022/06/19 18:26:01;;;;;;;18.63;7.80;;;29.50;94.90;;;;;;5052703;28;20278;-77
2022/06/19 18:28:31;;;;;;;16.43;6.97;;;29.40;95.40;;;;;;5063374;28;20207;-79
2022/06/19 18:31:00;;;;;;;20.50;7.77;;;29.40;95.20;;;;;;5066355;28;20204;-76
2022/06/19 18:33:30;;;;;;;19.80;7.30;;;29.30;95.30;;;;;;5066560;28;20208;-78
2022/06/19 18:35:59;;;;;;;15.50;7.20;;;29.10;95.10;;;;;;5072239;28;20270;-76
2022/06/19 18:38:33;;;;;;;18.13;7.47;;;29.10;95.30;;;;;;5065911;28;20211;-76
2022/06/19 18:41:02;;;;;;;20.67;6.90;;;28.90;95.00;;;;;;5071350;28;20215;-77
2022/06/19 18:43:31;;;;;;;18.60;6.93;;;28.90;94.50;;;;;;5066883;28;20303;-76
2022/06/19 18:46:01;;;;;;;22.50;7.30;;;28.80;94.10;;;;;;5075488;28;20227;-77
2022/06/19 18:48:30;;;;;;;12.83;6.80;;;28.80;94.40;;;;;;5066954;28;20208;-77
2022/06/19 18:51:00;;;;;;;17.40;7.47;;;28.60;94.70;;;;;;5070146;28;20203;-78
2022/06/19 18:53:31;;;;;;;14.43;7.53;;;28.50;95.00;;;;;;5065767;28;20299;-77
2022/06/19 18:56:01;;;;;;;16.87;7.40;;;28.50;94.70;;;;;;5073027;28;20200;-76
2022/06/19 18:58:32;;;;;;;14.33;7.40;;;28.30;95.20;;;;;;5068007;28;20282;-77
2022/06/19 19:01:06;;;;;;;19.73;7.57;;;28.20;95.40;;;;;;5077615;28;20199;-77
2022/06/19 19:03:35;;;;;;;19.17;7.63;;;28.10;95.70;;;;;;5073880;28;20203;-76
2022/06/19 19:06:04;;;;;;;19.63;7.83;;;28.00;96.30;;;;;;5075410;28;20256;-78
2022/06/19 19:08:35;;;;;;;21.23;8.27;;;27.90;96.80;;;;;;5073332;28;20238;-78
2022/06/19 19:11:07;;;;;;;19.90;7.80;;;27.90;97.30;;;;;;5071365;28;20650;-76
2022/06/19 19:13:39;;;;;;;16.83;8.03;;;27.80;97.40;;;;;;5071324;28;20265;-75
2022/06/19 19:16:15;;;;;;;22.17;8.77;;;27.70;97.80;;;;;;5071451;28;20203;-76
2022/06/19 19:18:44;;;;;;;15.00;7.77;;;27.60;98.20;;;;;;5071074;28;20207;-75
2022/06/19 19:21:13;;;;;;;19.50;7.63;;;27.50;98.80;;;;;;5079260;28;20203;-75
2022/06/19 19:23:41;;;;;;;16.90;7.70;;;27.30;99.20;;;;;;5080055;28;20297;-75
2022/06/19 19:26:16;;;;;;;14.57;7.60;;;27.30;99.70;;;;;;5072154;28;20199;-77
2022/06/19 19:28:48;;;;;;;24.03;8.07;;;27.10;99.80;;;;;;5071888;28;20612;-76
2022/06/19 19:31:20;;;;;;;18.87;7.50;;;27.00;99.90;;;;;;5071472;28;20721;-77
2022/06/19 19:33:52;;;;;;;18.67;7.53;;;27.00;99.90;;;;;;5072847;28;20195;-78
2022/06/19 19:36:22;;;;;;;21.03;7.57;;;26.90;99.90;;;;;;5077514;28;20283;-75
2022/06/19 19:38:53;;;;;;;17.47;7.27;;;26.80;99.90;;;;;;5080447;28;20268;-76
2022/06/19 19:41:24;;;;;;;15.67;7.47;;;26.70;99.90;;;;;;5079330;28;20220;-77
2022/06/19 19:43:52;;;;;;;13.97;7.50;;;26.60;99.90;;;;;;5077459;28;20276;-76
2022/06/19 19:46:27;;;;;;;19.77;7.73;;;26.50;99.90;;;;;;5077175;28;20303;-78
2022/06/19 19:48:57;;;;;;;20.93;8.40;;;26.50;99.90;;;;;;5074797;28;20233;-77
2022/06/19 19:51:26;;;;;;;16.63;7.90;;;26.40;99.90;;;;;;5074912;28;20278;-78
2022/06/19 19:53:55;;;;;;;16.97;8.07;;;26.30;99.90;;;;;;5074064;28;20313;-76
2022/06/19 19:56:26;;;;;;;18.10;7.97;;;26.20;99.90;;;;;;5074674;28;20207;-76
2022/06/19 19:58:55;;;;;;;19.60;8.27;;;26.20;99.90;;;;;;5071333;28;20260;-78
2022/06/19 20:01:29;;;;;;;19.83;7.83;;;26.10;99.90;;;;;;5070896;28;20254;-77
2022/06/19 20:03:58;;;;;;;17.97;7.73;;;26.00;99.90;;;;;;5070269;28;20211;-76
2022/06/19 20:12:26;;;;;;;15.37;7.73;;;25.90;99.90;;;;;;4968456;28;20262;-77
2022/06/19 20:14:54;;;;;;;16.90;8.27;;;25.80;99.90;;;;;;4966455;28;20290;-78
2022/06/19 20:17:22;;;;;;;19.17;7.73;;;25.60;99.90;;;;;;5013296;28;20693;-78
2022/06/19 20:19:50;;;;;;;18.97;8.13;;;25.60;99.90;;;;;;5078686;28;20199;-77
2022/06/19 20:22:22;;;;;;;17.60;8.27;;;25.50;99.90;;;;;;5068031;28;20242;-78
2022/06/19 20:24:54;;;;;;;19.13;8.27;;;25.50;99.90;;;;;;5074509;28;20214;-74
2022/06/19 20:27:33;;;;;;;20.57;8.63;;;25.40;99.90;;;;;;5063846;28;20331;-76
2022/06/19 20:30:04;;;;;;;17.53;7.93;;;25.30;99.90;;;;;;5070191;28;20786;-77
2022/06/19 20:32:36;;;;;;;17.57;7.97;;;25.30;99.90;;;;;;5077849;28;20227;-78
2022/06/19 20:35:09;;;;;;;20.50;8.23;;;25.20;99.90;;;;;;5073996;28;20211;-77
2022/06/19 20:37:43;;;;;;;19.90;8.00;;;25.20;99.90;;;;;;5077876;28;20547;-75
2022/06/19 20:40:17;;;;;;;20.57;8.70;;;25.10;99.90;;;;;;5074160;28;20816;-77
2022/06/19 20:42:48;;;;;;;15.80;8.27;;;25.00;99.90;;;;;;5075815;28;20207;-75
2022/06/19 20:45:17;;;;;;;18.70;8.00;;;25.10;99.90;;;;;;5073579;28;20203;-74
2022/06/19 20:47:49;;;;;;;18.00;7.97;;;25.10;99.90;;;;;;5072650;28;20627;-75
2022/06/19 20:50:21;;;;;;;18.03;8.13;;;25.00;99.90;;;;;;5073835;28;20219;-75
2022/06/19 20:52:51;;;;;;;17.77;7.63;;;25.00;99.90;;;;;;5076452;28;20219;-76
2022/06/19 20:55:22;;;;;;;15.03;7.43;;;24.90;99.90;;;;;;5074642;28;20661;-75
2022/06/19 20:57:53;;;;;;;18.17;8.23;;;24.90;99.90;;;;;;5074708;28;20203;-75
2022/06/19 21:00:23;;;;;;;17.73;8.23;;;25.00;99.90;;;;;;5063260;28;20740;-76
2022/06/19 21:02:51;;;;;;;19.30;7.67;;;24.90;99.90;;;;;;5084836;28;20250;-76
2022/06/19 21:05:21;;;;;;;16.87;7.70;;;24.80;99.90;;;;;;5081264;28;20212;-77
2022/06/19 21:07:51;;;;;;;20.87;8.33;;;24.80;99.90;;;;;;5083098;28;20215;-77
2022/06/19 21:10:23;;;;;;;14.83;7.97;;;24.70;99.90;;;;;;5079377;28;20250;-77
2022/06/19 21:12:53;;;;;;;18.43;7.80;;;24.60;99.90;;;;;;5081488;28;20217;-76
2022/06/19 21:15:21;;;;;;;19.07;8.27;;;24.50;99.90;;;;;;5078536;28;20207;-76
2022/06/19 21:17:50;;;;;;;16.80;8.40;;;24.40;99.90;;;;;;5079423;28;20250;-76
2022/06/19 21:20:18;;;;;;;15.60;7.97;;;24.30;99.90;;;;;;5077872;28;20258;-77
2022/06/19 21:22:50;;;;;;;20.00;8.77;;;24.20;99.90;;;;;;5071627;28;20273;-76
2022/06/19 21:25:21;;;;;;;16.17;7.83;;;24.10;99.90;;;;;;5082828;28;20688;-73
2022/06/19 21:27:53;;;;;;;21.47;8.30;;;24.00;99.90;;;;;;5078957;28;20629;-72
2022/06/19 21:30:22;;;;;;;20.63;8.40;;;23.90;99.90;;;;;;5080382;28;20264;-74
2022/06/19 21:32:50;;;;;;;20.53;8.70;;;23.90;99.90;;;;;;5076847;28;20257;-72
2022/06/19 21:35:20;;;;;;;20.27;8.60;;;23.80;99.90;;;;;;5077755;28;20207;-74
2022/06/19 21:37:52;;;;;;;16.07;7.90;;;23.70;99.90;;;;;;5076115;28;20204;-72